sensor_id;sensor_type;location;lat;lon;timestamp;P1;durP1;ratioP1;P2;durP2;ratioP2
59458;SDS011;45269;43.568;22.244;2023-12-14T00:02:24;68.38;;;56.50;;
59458;SDS011;45269;43.568;22.244;2023-12-14T00:04:49;79.07;;;64.97;;
59458;SDS011;45269;43.568;22.244;2023-12-14T00:07:14;106.25;;;83.78;;
59458;SDS011;45269;43.568;22.244;2023-12-14T00:09:41;127.38;;;99.63;;
59458;SDS011;45269;43.568;22.244;2023-12-14T00:12:06;107.70;;;83.75;;
59458;SDS011;45269;43.568;22.244;2023-12-14T00:14:32;100.32;;;80.38;;
59458;SDS011;45269;43.568;22.244;2023-12-14T00:16:57;82.70;;;63.83;;
59458;SDS011;45269;43.568;22.244;2023-12-14T00:19:24;86.38;;;61.63;;
59458;SDS011;45269;43.568;22.244;2023-12-14T00:21:49;94.18;;;77.20;;
59458;SDS011;45269;43.568;22.244;2023-12-14T00:24:15;120.25;;;97.97;;
59458;SDS011;45269;43.568;22.244;2023-12-14T00:26:40;98.18;;;76.07;;
59458;SDS011;45269;43.568;22.244;2023-12-14T00:29:05;96.47;;;74.28;;
59458;SDS011;45269;43.568;22.244;2023-12-14T00:31:31;80.68;;;61.95;;
59458;SDS011;45269;43.568;22.244;2023-12-14T00:33:56;90.70;;;68.80;;
59458;SDS011;45269;43.568;22.244;2023-12-14T00:36:21;97.93;;;73.72;;
59458;SDS011;45269;43.568;22.244;2023-12-14T00:38:47;90.38;;;65.97;;
59458;SDS011;45269;43.568;22.244;2023-12-14T00:41:12;88.32;;;64.45;;
59458;SDS011;45269;43.568;22.244;2023-12-14T00:43:37;118.88;;;89.68;;
59458;SDS011;45269;43.568;22.244;2023-12-14T00:46:03;106.70;;;81.47;;
59458;SDS011;45269;43.568;22.244;2023-12-14T00:48:29;102.95;;;79.80;;
59458;SDS011;45269;43.568;22.244;2023-12-14T00:50:54;100.72;;;76.07;;
59458;SDS011;45269;43.568;22.244;2023-12-14T00:53:19;125.55;;;97.95;;
59458;SDS011;45269;43.568;22.244;2023-12-14T00:55:45;129.32;;;93.40;;
59458;SDS011;45269;43.568;22.244;2023-12-14T00:58:11;87.65;;;69.15;;
59458;SDS011;45269;43.568;22.244;2023-12-14T01:00:38;99.70;;;76.82;;
59458;SDS011;45269;43.568;22.244;2023-12-14T01:03:03;91.25;;;69.93;;
59458;SDS011;45269;43.568;22.244;2023-12-14T01:05:28;94.28;;;71.85;;
59458;SDS011;45269;43.568;22.244;2023-12-14T01:07:54;98.05;;;74.00;;
59458;SDS011;45269;43.568;22.244;2023-12-14T01:10:19;108.25;;;81.82;;
59458;SDS011;45269;43.568;22.244;2023-12-14T01:12:44;97.60;;;67.68;;
59458;SDS011;45269;43.568;22.244;2023-12-14T01:15:10;99.35;;;71.88;;
59458;SDS011;45269;43.568;22.244;2023-12-14T01:17:35;103.90;;;74.72;;
59458;SDS011;45269;43.568;22.244;2023-12-14T01:20:06;113.57;;;81.15;;
59458;SDS011;45269;43.568;22.244;2023-12-14T01:22:32;124.07;;;82.53;;
59458;SDS011;45269;43.568;22.244;2023-12-14T01:24:57;120.57;;;78.72;;
59458;SDS011;45269;43.568;22.244;2023-12-14T01:27:22;119.53;;;83.28;;
59458;SDS011;45269;43.568;22.244;2023-12-14T01:29:48;118.20;;;80.10;;
59458;SDS011;45269;43.568;22.244;2023-12-14T01:32:13;128.23;;;77.07;;
59458;SDS011;45269;43.568;22.244;2023-12-14T01:34:39;109.50;;;74.40;;
59458;SDS011;45269;43.568;22.244;2023-12-14T01:37:04;120.43;;;82.03;;
59458;SDS011;45269;43.568;22.244;2023-12-14T01:39:29;108.60;;;72.97;;
59458;SDS011;45269;43.568;22.244;2023-12-14T01:41:55;111.97;;;77.55;;
59458;SDS011;45269;43.568;22.244;2023-12-14T01:44:20;134.32;;;85.72;;
59458;SDS011;45269;43.568;22.244;2023-12-14T01:46:45;120.82;;;85.22;;
59458;SDS011;45269;43.568;22.244;2023-12-14T01:49:11;190.80;;;92.13;;
59458;SDS011;45269;43.568;22.244;2023-12-14T01:51:36;135.43;;;82.25;;
59458;SDS011;45269;43.568;22.244;2023-12-14T01:54:02;125.95;;;84.75;;
59458;SDS011;45269;43.568;22.244;2023-12-14T01:56:27;116.35;;;73.63;;
59458;SDS011;45269;43.568;22.244;2023-12-14T01:58:52;119.63;;;77.15;;
59458;SDS011;45269;43.568;22.244;2023-12-14T02:01:20;135.10;;;94.05;;
59458;SDS011;45269;43.568;22.244;2023-12-14T02:03:46;120.68;;;82.35;;
59458;SDS011;45269;43.568;22.244;2023-12-14T02:06:13;126.93;;;89.45;;
59458;SDS011;45269;43.568;22.244;2023-12-14T02:08:39;126.68;;;88.80;;
59458;SDS011;45269;43.568;22.244;2023-12-14T02:11:04;121.28;;;84.35;;
59458;SDS011;45269;43.568;22.244;2023-12-14T02:13:29;117.45;;;88.63;;
59458;SDS011;45269;43.568;22.244;2023-12-14T02:15:55;140.45;;;102.03;;
59458;SDS011;45269;43.568;22.244;2023-12-14T02:18:20;142.27;;;101.65;;
59458;SDS011;45269;43.568;22.244;2023-12-14T02:20:45;129.95;;;90.20;;
59458;SDS011;45269;43.568;22.244;2023-12-14T02:23:11;119.97;;;84.75;;
59458;SDS011;45269;43.568;22.244;2023-12-14T02:25:36;124.93;;;90.43;;
59458;SDS011;45269;43.568;22.244;2023-12-14T02:28:01;129.82;;;88.82;;
59458;SDS011;45269;43.568;22.244;2023-12-14T02:30:27;139.35;;;98.60;;
59458;SDS011;45269;43.568;22.244;2023-12-14T02:32:52;133.15;;;91.45;;
59458;SDS011;45269;43.568;22.244;2023-12-14T02:35:18;124.75;;;88.70;;
59458;SDS011;45269;43.568;22.244;2023-12-14T02:37:43;128.27;;;89.10;;
59458;SDS011;45269;43.568;22.244;2023-12-14T02:40:09;130.82;;;90.20;;
59458;SDS011;45269;43.568;22.244;2023-12-14T02:42:34;145.90;;;87.63;;
59458;SDS011;45269;43.568;22.244;2023-12-14T02:45:00;127.07;;;77.85;;
59458;SDS011;45269;43.568;22.244;2023-12-14T02:47:27;328.42;;;77.78;;
59458;SDS011;45269;43.568;22.244;2023-12-14T02:49:52;438.23;;;83.10;;
59458;SDS011;45269;43.568;22.244;2023-12-14T02:52:17;317.00;;;81.38;;
59458;SDS011;45269;43.568;22.244;2023-12-14T02:54:43;257.77;;;83.80;;
59458;SDS011;45269;43.568;22.244;2023-12-14T02:57:08;493.08;;;91.97;;
59458;SDS011;45269;43.568;22.244;2023-12-14T02:59:33;631.28;;;113.63;;
59458;SDS011;45269;43.568;22.244;2023-12-14T03:01:59;652.08;;;114.43;;
59458;SDS011;45269;43.568;22.244;2023-12-14T03:04:25;798.80;;;132.32;;
59458;SDS011;45269;43.568;22.244;2023-12-14T03:06:50;699.15;;;123.90;;
59458;SDS011;45269;43.568;22.244;2023-12-14T03:09:15;247.45;;;91.60;;
59458;SDS011;45269;43.568;22.244;2023-12-14T03:11:41;511.00;;;112.25;;
59458;SDS011;45269;43.568;22.244;2023-12-14T03:14:06;279.55;;;95.38;;
59458;SDS011;45269;43.568;22.244;2023-12-14T03:16:31;633.55;;;134.35;;
59458;SDS011;45269;43.568;22.244;2023-12-14T03:18:57;473.77;;;116.20;;
59458;SDS011;45269;43.568;22.244;2023-12-14T03:21:23;561.03;;;131.82;;
59458;SDS011;45269;43.568;22.244;2023-12-14T03:23:48;532.97;;;128.75;;
59458;SDS011;45269;43.568;22.244;2023-12-14T03:26:14;676.53;;;151.52;;
59458;SDS011;45269;43.568;22.244;2023-12-14T03:28:39;588.40;;;136.10;;
59458;SDS011;45269;43.568;22.244;2023-12-14T03:31:05;335.23;;;114.88;;
59458;SDS011;45269;43.568;22.244;2023-12-14T03:33:30;468.10;;;121.93;;
59458;SDS011;45269;43.568;22.244;2023-12-14T03:35:55;557.83;;;126.22;;
59458;SDS011;45269;43.568;22.244;2023-12-14T03:38:21;330.45;;;106.85;;
59458;SDS011;45269;43.568;22.244;2023-12-14T03:40:46;267.58;;;102.80;;
59458;SDS011;45269;43.568;22.244;2023-12-14T03:43:11;288.73;;;99.93;;
59458;SDS011;45269;43.568;22.244;2023-12-14T03:45:37;208.65;;;99.13;;
59458;SDS011;45269;43.568;22.244;2023-12-14T03:48:02;255.77;;;97.82;;
59458;SDS011;45269;43.568;22.244;2023-12-14T03:50:27;187.30;;;95.38;;
59458;SDS011;45269;43.568;22.244;2023-12-14T03:52:54;163.60;;;88.72;;
59458;SDS011;45269;43.568;22.244;2023-12-14T03:55:19;180.77;;;90.78;;
59458;SDS011;45269;43.568;22.244;2023-12-14T03:57:44;198.18;;;95.25;;
59458;SDS011;45269;43.568;22.244;2023-12-14T04:00:11;131.80;;;77.38;;
59458;SDS011;45269;43.568;22.244;2023-12-14T04:02:37;130.52;;;80.68;;
59458;SDS011;45269;43.568;22.244;2023-12-14T04:05:03;127.90;;;79.05;;
59458;SDS011;45269;43.568;22.244;2023-12-14T04:07:28;110.95;;;70.95;;
59458;SDS011;45269;43.568;22.244;2023-12-14T04:09:53;110.55;;;75.60;;
59458;SDS011;45269;43.568;22.244;2023-12-14T04:12:19;114.57;;;79.57;;
59458;SDS011;45269;43.568;22.244;2023-12-14T04:14:45;112.13;;;75.72;;
59458;SDS011;45269;43.568;22.244;2023-12-14T04:17:10;119.25;;;79.78;;
59458;SDS011;45269;43.568;22.244;2023-12-14T04:19:38;147.23;;;98.80;;
59458;SDS011;45269;43.568;22.244;2023-12-14T04:22:03;141.93;;;96.85;;
59458;SDS011;45269;43.568;22.244;2023-12-14T04:24:29;150.48;;;98.22;;
59458;SDS011;45269;43.568;22.244;2023-12-14T04:26:55;142.25;;;94.25;;
59458;SDS011;45269;43.568;22.244;2023-12-14T04:29:20;130.68;;;93.85;;
59458;SDS011;45269;43.568;22.244;2023-12-14T04:31:45;126.60;;;84.90;;
59458;SDS011;45269;43.568;22.244;2023-12-14T04:34:11;129.77;;;82.65;;
59458;SDS011;45269;43.568;22.244;2023-12-14T04:36:40;109.88;;;72.22;;
59458;SDS011;45269;43.568;22.244;2023-12-14T04:39:06;125.45;;;81.88;;
59458;SDS011;45269;43.568;22.244;2023-12-14T04:41:31;125.82;;;84.65;;
59458;SDS011;45269;43.568;22.244;2023-12-14T04:43:57;115.93;;;79.05;;
59458;SDS011;45269;43.568;22.244;2023-12-14T04:46:22;118.88;;;82.10;;
59458;SDS011;45269;43.568;22.244;2023-12-14T04:48:47;126.95;;;87.88;;
59458;SDS011;45269;43.568;22.244;2023-12-14T04:51:13;122.25;;;87.25;;
59458;SDS011;45269;43.568;22.244;2023-12-14T04:53:38;119.80;;;88.03;;
59458;SDS011;45269;43.568;22.244;2023-12-14T04:56:04;123.72;;;88.25;;
59458;SDS011;45269;43.568;22.244;2023-12-14T04:58:29;111.78;;;83.22;;
59458;SDS011;45269;43.568;22.244;2023-12-14T05:00:55;107.10;;;84.57;;
59458;SDS011;45269;43.568;22.244;2023-12-14T05:03:20;108.45;;;83.32;;
59458;SDS011;45269;43.568;22.244;2023-12-14T05:05:45;117.10;;;87.25;;
59458;SDS011;45269;43.568;22.244;2023-12-14T05:08:11;119.95;;;91.53;;
59458;SDS011;45269;43.568;22.244;2023-12-14T05:10:36;136.90;;;102.32;;
59458;SDS011;45269;43.568;22.244;2023-12-14T05:13:01;123.43;;;93.20;;
59458;SDS011;45269;43.568;22.244;2023-12-14T05:15:27;121.72;;;95.15;;
59458;SDS011;45269;43.568;22.244;2023-12-14T05:17:52;121.53;;;92.35;;
59458;SDS011;45269;43.568;22.244;2023-12-14T05:20:18;149.45;;;112.47;;
59458;SDS011;45269;43.568;22.244;2023-12-14T05:22:43;153.57;;;114.13;;
59458;SDS011;45269;43.568;22.244;2023-12-14T05:25:08;146.02;;;106.97;;
59458;SDS011;45269;43.568;22.244;2023-12-14T05:27:34;158.65;;;110.13;;
59458;SDS011;45269;43.568;22.244;2023-12-14T05:29:59;219.00;;;182.13;;
59458;SDS011;45269;43.568;22.244;2023-12-14T05:32:24;119.60;;;89.30;;
59458;SDS011;45269;43.568;22.244;2023-12-14T05:34:50;134.43;;;95.43;;
59458;SDS011;45269;43.568;22.244;2023-12-14T05:37:15;131.77;;;98.80;;
59458;SDS011;45269;43.568;22.244;2023-12-14T05:39:41;221.32;;;165.00;;
59458;SDS011;45269;43.568;22.244;2023-12-14T05:42:07;226.93;;;168.88;;
59458;SDS011;45269;43.568;22.244;2023-12-14T05:44:32;302.75;;;224.75;;
59458;SDS011;45269;43.568;22.244;2023-12-14T05:46:58;282.80;;;215.07;;
59458;SDS011;45269;43.568;22.244;2023-12-14T05:49:23;211.55;;;148.85;;
59458;SDS011;45269;43.568;22.244;2023-12-14T05:51:48;201.45;;;145.18;;
59458;SDS011;45269;43.568;22.244;2023-12-14T05:54:14;311.23;;;236.27;;
59458;SDS011;45269;43.568;22.244;2023-12-14T05:56:39;195.13;;;138.02;;
59458;SDS011;45269;43.568;22.244;2023-12-14T05:59:04;366.63;;;287.85;;
59458;SDS011;45269;43.568;22.244;2023-12-14T06:01:30;140.52;;;104.50;;
59458;SDS011;45269;43.568;22.244;2023-12-14T06:03:55;198.80;;;150.55;;
59458;SDS011;45269;43.568;22.244;2023-12-14T06:06:20;130.38;;;100.03;;
59458;SDS011;45269;43.568;22.244;2023-12-14T06:08:46;157.48;;;116.30;;
59458;SDS011;45269;43.568;22.244;2023-12-14T06:11:11;132.55;;;98.22;;
59458;SDS011;45269;43.568;22.244;2023-12-14T06:13:37;146.13;;;113.18;;
59458;SDS011;45269;43.568;22.244;2023-12-14T06:16:03;161.68;;;126.85;;
59458;SDS011;45269;43.568;22.244;2023-12-14T06:18:28;161.95;;;122.57;;
59458;SDS011;45269;43.568;22.244;2023-12-14T06:20:53;153.45;;;117.05;;
59458;SDS011;45269;43.568;22.244;2023-12-14T06:23:19;131.80;;;101.75;;
59458;SDS011;45269;43.568;22.244;2023-12-14T06:25:44;122.95;;;95.07;;
59458;SDS011;45269;43.568;22.244;2023-12-14T06:28:09;179.25;;;147.98;;
59458;SDS011;45269;43.568;22.244;2023-12-14T06:30:35;152.80;;;124.90;;
59458;SDS011;45269;43.568;22.244;2023-12-14T06:33:00;153.35;;;125.55;;
59458;SDS011;45269;43.568;22.244;2023-12-14T06:35:25;176.43;;;137.77;;
59458;SDS011;45269;43.568;22.244;2023-12-14T06:37:51;129.20;;;104.20;;
59458;SDS011;45269;43.568;22.244;2023-12-14T06:40:16;131.35;;;102.68;;
59458;SDS011;45269;43.568;22.244;2023-12-14T06:42:42;125.30;;;98.93;;
59458;SDS011;45269;43.568;22.244;2023-12-14T06:45:07;130.52;;;104.65;;
59458;SDS011;45269;43.568;22.244;2023-12-14T06:47:33;157.23;;;130.05;;
59458;SDS011;45269;43.568;22.244;2023-12-14T06:49:58;134.95;;;107.43;;
59458;SDS011;45269;43.568;22.244;2023-12-14T06:52:24;111.80;;;88.40;;
59458;SDS011;45269;43.568;22.244;2023-12-14T06:54:49;108.07;;;84.60;;
59458;SDS011;45269;43.568;22.244;2023-12-14T06:57:14;105.82;;;83.47;;
59458;SDS011;45269;43.568;22.244;2023-12-14T06:59:40;92.18;;;68.55;;
59458;SDS011;45269;43.568;22.244;2023-12-14T07:02:05;103.10;;;79.32;;
59458;SDS011;45269;43.568;22.244;2023-12-14T07:04:31;161.02;;;120.22;;
59458;SDS011;45269;43.568;22.244;2023-12-14T07:06:56;108.55;;;90.45;;
59458;SDS011;45269;43.568;22.244;2023-12-14T07:09:22;262.58;;;197.85;;
59458;SDS011;45269;43.568;22.244;2023-12-14T07:11:47;240.68;;;181.60;;
59458;SDS011;45269;43.568;22.244;2023-12-14T07:14:13;300.92;;;226.60;;
59458;SDS011;45269;43.568;22.244;2023-12-14T07:16:40;217.35;;;163.13;;
59458;SDS011;45269;43.568;22.244;2023-12-14T07:19:05;204.45;;;164.52;;
59458;SDS011;45269;43.568;22.244;2023-12-14T07:21:30;166.25;;;132.60;;
59458;SDS011;45269;43.568;22.244;2023-12-14T07:23:56;176.15;;;143.68;;
59458;SDS011;45269;43.568;22.244;2023-12-14T07:26:21;191.20;;;160.68;;
59458;SDS011;45269;43.568;22.244;2023-12-14T07:28:46;204.02;;;163.70;;
59458;SDS011;45269;43.568;22.244;2023-12-14T07:31:12;234.73;;;184.35;;
59458;SDS011;45269;43.568;22.244;2023-12-14T07:33:37;270.48;;;222.40;;
59458;SDS011;45269;43.568;22.244;2023-12-14T07:36:03;323.52;;;270.17;;
59458;SDS011;45269;43.568;22.244;2023-12-14T07:38:30;234.60;;;192.18;;
59458;SDS011;45269;43.568;22.244;2023-12-14T07:40:55;259.70;;;226.30;;
59458;SDS011;45269;43.568;22.244;2023-12-14T07:43:21;202.85;;;170.13;;
59458;SDS011;45269;43.568;22.244;2023-12-14T07:45:47;268.50;;;236.30;;
59458;SDS011;45269;43.568;22.244;2023-12-14T07:48:13;281.00;;;211.02;;
59458;SDS011;45269;43.568;22.244;2023-12-14T07:50:38;229.82;;;168.57;;
59458;SDS011;45269;43.568;22.244;2023-12-14T07:53:04;275.52;;;222.90;;
59458;SDS011;45269;43.568;22.244;2023-12-14T07:55:29;161.82;;;133.85;;
59458;SDS011;45269;43.568;22.244;2023-12-14T07:57:55;150.32;;;124.47;;
59458;SDS011;45269;43.568;22.244;2023-12-14T08:00:20;161.40;;;133.13;;
59458;SDS011;45269;43.568;22.244;2023-12-14T08:02:45;190.65;;;167.38;;
59458;SDS011;45269;43.568;22.244;2023-12-14T08:05:11;183.80;;;158.95;;
59458;SDS011;45269;43.568;22.244;2023-12-14T08:07:36;161.60;;;134.05;;
59458;SDS011;45269;43.568;22.244;2023-12-14T08:10:02;112.05;;;88.63;;
59458;SDS011;45269;43.568;22.244;2023-12-14T08:12:28;127.95;;;101.18;;
59458;SDS011;45269;43.568;22.244;2023-12-14T08:14:53;154.57;;;119.32;;
59458;SDS011;45269;43.568;22.244;2023-12-14T08:17:19;174.98;;;135.88;;
59458;SDS011;45269;43.568;22.244;2023-12-14T08:19:44;138.05;;;105.82;;
59458;SDS011;45269;43.568;22.244;2023-12-14T08:22:10;106.68;;;84.55;;
59458;SDS011;45269;43.568;22.244;2023-12-14T08:24:37;131.75;;;112.60;;
59458;SDS011;45269;43.568;22.244;2023-12-14T08:27:03;181.90;;;153.32;;
59458;SDS011;45269;43.568;22.244;2023-12-14T08:29:28;234.77;;;186.48;;
59458;SDS011;45269;43.568;22.244;2023-12-14T08:31:54;210.90;;;174.20;;
59458;SDS011;45269;43.568;22.244;2023-12-14T08:34:22;355.35;;;272.23;;
59458;SDS011;45269;43.568;22.244;2023-12-14T08:36:47;280.95;;;232.55;;
59458;SDS011;45269;43.568;22.244;2023-12-14T08:39:13;295.00;;;223.95;;
59458;SDS011;45269;43.568;22.244;2023-12-14T08:41:38;257.08;;;215.05;;
59458;SDS011;45269;43.568;22.244;2023-12-14T08:44:03;216.07;;;183.63;;
59458;SDS011;45269;43.568;22.244;2023-12-14T08:46:29;240.48;;;195.32;;
59458;SDS011;45269;43.568;22.244;2023-12-14T08:49:03;244.23;;;197.32;;
59458;SDS011;45269;43.568;22.244;2023-12-14T08:51:29;243.82;;;189.10;;
59458;SDS011;45269;43.568;22.244;2023-12-14T08:53:55;205.45;;;176.80;;
59458;SDS011;45269;43.568;22.244;2023-12-14T08:56:20;155.00;;;129.75;;
59458;SDS011;45269;43.568;22.244;2023-12-14T08:58:46;148.10;;;131.55;;
59458;SDS011;45269;43.568;22.244;2023-12-14T09:01:11;169.85;;;148.52;;
59458;SDS011;45269;43.568;22.244;2023-12-14T09:03:36;212.65;;;171.38;;
59458;SDS011;45269;43.568;22.244;2023-12-14T09:06:02;261.30;;;214.05;;
59458;SDS011;45269;43.568;22.244;2023-12-14T09:08:30;140.38;;;113.47;;
59458;SDS011;45269;43.568;22.244;2023-12-14T09:10:55;108.25;;;96.45;;
59458;SDS011;45269;43.568;22.244;2023-12-14T09:13:21;174.25;;;144.30;;
59458;SDS011;45269;43.568;22.244;2023-12-14T09:15:46;129.02;;;105.93;;
59458;SDS011;45269;43.568;22.244;2023-12-14T09:18:12;124.35;;;99.80;;
59458;SDS011;45269;43.568;22.244;2023-12-14T09:20:37;135.38;;;104.80;;
59458;SDS011;45269;43.568;22.244;2023-12-14T09:23:05;128.23;;;111.28;;
59458;SDS011;45269;43.568;22.244;2023-12-14T09:25:30;109.90;;;97.95;;
59458;SDS011;45269;43.568;22.244;2023-12-14T09:27:55;75.45;;;66.35;;
59458;SDS011;45269;43.568;22.244;2023-12-14T09:30:21;99.45;;;88.25;;
59458;SDS011;45269;43.568;22.244;2023-12-14T09:32:46;70.47;;;59.47;;
59458;SDS011;45269;43.568;22.244;2023-12-14T09:35:11;81.32;;;69.65;;
59458;SDS011;45269;43.568;22.244;2023-12-14T09:37:37;90.38;;;80.35;;
59458;SDS011;45269;43.568;22.244;2023-12-14T09:40:02;81.55;;;72.80;;
59458;SDS011;45269;43.568;22.244;2023-12-14T09:42:28;111.50;;;99.63;;
59458;SDS011;45269;43.568;22.244;2023-12-14T09:45:01;110.82;;;98.75;;
59458;SDS011;45269;43.568;22.244;2023-12-14T09:47:26;129.30;;;115.32;;
59458;SDS011;45269;43.568;22.244;2023-12-14T09:49:51;157.35;;;129.65;;
59458;SDS011;45269;43.568;22.244;2023-12-14T09:52:17;134.50;;;105.75;;
59458;SDS011;45269;43.568;22.244;2023-12-14T09:54:43;159.50;;;116.93;;
59458;SDS011;45269;43.568;22.244;2023-12-14T09:57:08;154.55;;;115.05;;
59458;SDS011;45269;43.568;22.244;2023-12-14T09:59:34;136.85;;;97.03;;
59458;SDS011;45269;43.568;22.244;2023-12-14T10:02:12;166.40;;;123.55;;
59458;SDS011;45269;43.568;22.244;2023-12-14T10:04:37;188.85;;;153.00;;
59458;SDS011;45269;43.568;22.244;2023-12-14T10:07:03;185.90;;;152.48;;
59458;SDS011;45269;43.568;22.244;2023-12-14T10:09:32;463.13;;;379.83;;
59458;SDS011;45269;43.568;22.244;2023-12-14T10:12:05;158.73;;;133.63;;
59458;SDS011;45269;43.568;22.244;2023-12-14T10:14:30;301.42;;;251.77;;
59458;SDS011;45269;43.568;22.244;2023-12-14T10:16:56;474.02;;;423.27;;
59458;SDS011;45269;43.568;22.244;2023-12-14T10:19:21;367.90;;;315.50;;
59458;SDS011;45269;43.568;22.244;2023-12-14T10:21:47;342.50;;;305.20;;
59458;SDS011;45269;43.568;22.244;2023-12-14T10:24:13;348.10;;;310.75;;
59458;SDS011;45269;43.568;22.244;2023-12-14T10:26:39;206.25;;;184.48;;
59458;SDS011;45269;43.568;22.244;2023-12-14T10:29:04;247.52;;;220.95;;
59458;SDS011;45269;43.568;22.244;2023-12-14T10:31:32;244.70;;;218.20;;
59458;SDS011;45269;43.568;22.244;2023-12-14T10:34:03;202.75;;;181.32;;
59458;SDS011;45269;43.568;22.244;2023-12-14T10:36:28;108.45;;;96.78;;
59458;SDS011;45269;43.568;22.244;2023-12-14T10:38:54;58.88;;;52.53;;
59458;SDS011;45269;43.568;22.244;2023-12-14T10:41:21;43.22;;;37.72;;
59458;SDS011;45269;43.568;22.244;2023-12-14T10:43:48;36.22;;;32.42;;
59458;SDS011;45269;43.568;22.244;2023-12-14T10:46:13;22.58;;;20.25;;
59458;SDS011;45269;43.568;22.244;2023-12-14T10:48:39;30.23;;;27.05;;
59458;SDS011;45269;43.568;22.244;2023-12-14T10:51:09;26.40;;;23.40;;
59458;SDS011;45269;43.568;22.244;2023-12-14T10:53:35;18.08;;;16.13;;
59458;SDS011;45269;43.568;22.244;2023-12-14T10:56:01;81.95;;;50.67;;
59458;SDS011;45269;43.568;22.244;2023-12-14T10:58:44;127.97;;;75.43;;
59458;SDS011;45269;43.568;22.244;2023-12-14T11:01:13;27.95;;;21.50;;
59458;SDS011;45269;43.568;22.244;2023-12-14T11:03:39;10.73;;;9.63;;
59458;SDS011;45269;43.568;22.244;2023-12-14T11:06:15;21.67;;;19.77;;
59458;SDS011;45269;43.568;22.244;2023-12-14T11:08:45;30.45;;;22.13;;
59458;SDS011;45269;43.568;22.244;2023-12-14T11:11:10;68.05;;;52.17;;
59458;SDS011;45269;43.568;22.244;2023-12-14T11:13:37;36.38;;;29.52;;
59458;SDS011;45269;43.568;22.244;2023-12-14T11:16:04;61.45;;;47.90;;
59458;SDS011;45269;43.568;22.244;2023-12-14T11:18:30;50.67;;;41.30;;
59458;SDS011;45269;43.568;22.244;2023-12-14T11:20:58;39.33;;;34.20;;
59458;SDS011;45269;43.568;22.244;2023-12-14T11:25:54;51.97;;;43.92;;
59458;SDS011;45269;43.568;22.244;2023-12-14T11:28:19;56.80;;;45.47;;
59458;SDS011;45269;43.568;22.244;2023-12-14T11:30:45;70.88;;;54.63;;
59458;SDS011;45269;43.568;22.244;2023-12-14T11:33:14;69.65;;;47.72;;
59458;SDS011;45269;43.568;22.244;2023-12-14T11:35:40;168.57;;;105.40;;
59458;SDS011;45269;43.568;22.244;2023-12-14T11:38:06;141.65;;;97.93;;
59458;SDS011;45269;43.568;22.244;2023-12-14T11:40:40;228.32;;;169.85;;
59458;SDS011;45269;43.568;22.244;2023-12-14T11:43:07;178.18;;;137.70;;
59458;SDS011;45269;43.568;22.244;2023-12-14T11:45:33;91.25;;;72.65;;
59458;SDS011;45269;43.568;22.244;2023-12-14T11:47:59;46.03;;;39.10;;
59458;SDS011;45269;43.568;22.244;2023-12-14T11:50:26;38.13;;;33.33;;
59458;SDS011;45269;43.568;22.244;2023-12-14T11:52:51;18.02;;;15.57;;
59458;SDS011;45269;43.568;22.244;2023-12-14T11:55:18;68.47;;;50.00;;
59458;SDS011;45269;43.568;22.244;2023-12-14T11:57:46;176.82;;;144.07;;
59458;SDS011;45269;43.568;22.244;2023-12-14T12:00:11;64.70;;;54.25;;
59458;SDS011;45269;43.568;22.244;2023-12-14T12:02:37;73.40;;;58.10;;
59458;SDS011;45269;43.568;22.244;2023-12-14T12:05:03;33.25;;;27.98;;
59458;SDS011;45269;43.568;22.244;2023-12-14T12:07:28;69.28;;;56.55;;
59458;SDS011;45269;43.568;22.244;2023-12-14T12:09:54;32.15;;;27.73;;
59458;SDS011;45269;43.568;22.244;2023-12-14T12:12:20;35.92;;;31.65;;
59458;SDS011;45269;43.568;22.244;2023-12-14T12:14:47;31.63;;;27.85;;
59458;SDS011;45269;43.568;22.244;2023-12-14T12:17:14;36.58;;;30.98;;
59458;SDS011;45269;43.568;22.244;2023-12-14T12:19:40;56.38;;;47.10;;
59458;SDS011;45269;43.568;22.244;2023-12-14T12:22:07;49.63;;;43.00;;
59458;SDS011;45269;43.568;22.244;2023-12-14T12:24:33;68.63;;;59.88;;
59458;SDS011;45269;43.568;22.244;2023-12-14T12:26:59;63.60;;;54.10;;
59458;SDS011;45269;43.568;22.244;2023-12-14T12:29:24;60.03;;;52.70;;
59458;SDS011;45269;43.568;22.244;2023-12-14T12:31:50;55.63;;;46.53;;
59458;SDS011;45269;43.568;22.244;2023-12-14T12:34:16;112.63;;;83.22;;
59458;SDS011;45269;43.568;22.244;2023-12-14T12:36:42;242.00;;;202.05;;
59458;SDS011;45269;43.568;22.244;2023-12-14T12:39:07;146.40;;;114.72;;
59458;SDS011;45269;43.568;22.244;2023-12-14T12:41:34;92.32;;;79.15;;
59458;SDS011;45269;43.568;22.244;2023-12-14T12:43:59;435.55;;;336.30;;
59458;SDS011;45269;43.568;22.244;2023-12-14T12:46:31;458.30;;;375.05;;
59458;SDS011;45269;43.568;22.244;2023-12-14T12:48:57;190.18;;;150.27;;
59458;SDS011;45269;43.568;22.244;2023-12-14T12:51:22;177.88;;;139.05;;
59458;SDS011;45269;43.568;22.244;2023-12-14T12:53:47;122.88;;;97.00;;
59458;SDS011;45269;43.568;22.244;2023-12-14T12:56:13;129.60;;;102.35;;
59458;SDS011;45269;43.568;22.244;2023-12-14T12:58:38;136.70;;;109.13;;
59458;SDS011;45269;43.568;22.244;2023-12-14T13:01:03;153.63;;;123.63;;
59458;SDS011;45269;43.568;22.244;2023-12-14T13:03:29;381.80;;;244.30;;
59458;SDS011;45269;43.568;22.244;2023-12-14T13:05:54;119.38;;;89.63;;
59458;SDS011;45269;43.568;22.244;2023-12-14T13:08:20;138.40;;;89.70;;
59458;SDS011;45269;43.568;22.244;2023-12-14T13:10:47;90.13;;;78.18;;
59458;SDS011;45269;43.568;22.244;2023-12-14T13:13:13;131.50;;;110.43;;
59458;SDS011;45269;43.568;22.244;2023-12-14T13:15:39;70.75;;;60.30;;
59458;SDS011;45269;43.568;22.244;2023-12-14T13:18:04;81.78;;;72.75;;
59458;SDS011;45269;43.568;22.244;2023-12-14T13:20:30;72.90;;;65.22;;
59458;SDS011;45269;43.568;22.244;2023-12-14T13:22:55;48.25;;;41.53;;
59458;SDS011;45269;43.568;22.244;2023-12-14T13:25:20;68.78;;;54.22;;
59458;SDS011;45269;43.568;22.244;2023-12-14T13:27:51;55.13;;;43.78;;
59458;SDS011;45269;43.568;22.244;2023-12-14T13:30:16;18.02;;;15.90;;
59458;SDS011;45269;43.568;22.244;2023-12-14T13:32:42;95.07;;;86.18;;
59458;SDS011;45269;43.568;22.244;2023-12-14T13:35:07;43.03;;;38.72;;
59458;SDS011;45269;43.568;22.244;2023-12-14T13:37:34;73.05;;;64.97;;
59458;SDS011;45269;43.568;22.244;2023-12-14T13:39:59;41.28;;;36.78;;
59458;SDS011;45269;43.568;22.244;2023-12-14T13:42:24;48.20;;;43.78;;
59458;SDS011;45269;43.568;22.244;2023-12-14T13:44:50;18.08;;;16.33;;
59458;SDS011;45269;43.568;22.244;2023-12-14T13:47:15;16.05;;;14.35;;
59458;SDS011;45269;43.568;22.244;2023-12-14T13:49:40;28.00;;;25.02;;